Latest Weather Observations for Rosslyn Bay Harbour

IDQ60801

Issued at 11:35 pm EST Friday 22 August 2014 (issued every 30 minutes, with the page automatically refreshed every 10 minutes)

About weather observations | Map of weather stations | Latest weather observations for QLD | Other Formats
Station Details ID: 033208 Name: ROSSLYN BAY NTC AWS Lat: -23.16 Lon: 150.79 Height: 0.0 m
Data from the previous 72 hours. | See also: Recent months for locations in Queensland
Date/Time
EST
Temp
°C
App
Temp
°C
Dew
Point
Rel
Hum
%
Delta-T
°C
Wind Press
QNH
hPa
Press
MSL
hPa
Rain
since 9 am
mm
Dir
 
Spd
km/h
Gust
km/h
Spd
kts
Gust
kts
22/11:30pm 18.1 - - - - S 11 22 6 12 1020.6 1020.6 -
22/11:00pm 18.3 - - - - S 15 28 8 15 1020.6 1020.6 -
22/10:30pm 18.7 - - - - S 13 26 7 14 1020.7 1020.7 -
22/10:00pm 18.9 - - - - S 13 30 7 16 1020.7 1020.7 -
22/09:30pm 19.1 - - - - S 15 24 8 13 1020.6 1020.6 -
22/09:00pm 19.3 - - - - S 15 28 8 15 1020.7 1020.7 -
22/08:30pm 19.5 - - - - SSW 9 17 5 9 1020.5 1020.5 -
22/08:00pm 19.5 - - - - S 7 17 4 9 1020.2 1020.2 -
22/07:30pm 19.5 - - - - S 11 17 6 9 1020.0 1020.0 -
22/07:00pm 19.5 - - - - S 11 19 6 10 1019.7 1019.7 -
22/06:30pm 19.4 - - - - S 7 15 4 8 1019.4 1019.4 -
22/06:00pm 19.6 - - - - S 6 13 3 7 1019.1 1019.1 -
22/05:30pm 19.8 - - - - SSW 6 15 3 8 1018.8 1018.8 -
22/05:00pm 20.0 - - - - S 4 13 2 7 1018.5 1018.5 -
22/04:30pm 20.2 - - - - SSW 4 13 2 7 1018.4 1018.4 -
22/04:00pm 20.7 - - - - WSW 4 9 2 5 1018.4 1018.4 -
22/03:30pm 20.2 - - - - SSW 4 13 2 7 1018.3 1018.3 -
22/03:00pm 20.1 - - - - S 6 17 3 9 1018.2 1018.2 -
22/02:30pm 20.1 - - - - S 6 15 3 8 1018.1 1018.1 -
22/02:00pm 19.9 - - - - S 9 19 5 10 1018.6 1018.6 -
22/01:30pm 19.9 - - - - S 13 24 7 13 1019.2 1019.2 -
22/01:00pm 19.6 - - - - S 15 22 8 12 1019.9 1019.9 -
22/12:30pm 19.6 - - - - S 13 22 7 12 1020.2 1020.2 -
22/12:00pm 20.2 - - - - S 11 20 6 11 1020.7 1020.7 -
22/11:30am 19.4 - - - - S 19 30 10 16 1021.1 1021.1 -
22/11:00am 19.2 - - - - S 13 24 7 13 1021.5 1021.5 -
22/10:30am 18.7 - - - - S 15 26 8 14 1021.9 1021.9 -
22/10:00am 18.5 - - - - S 13 28 7 15 1022.0 1022.0 -
22/09:30am 18.1 - - - - S 13 28 7 15 1022.0 1022.0 -
22/09:00am 17.8 - - - - S 13 26 7 14 1021.9 1021.9 -
22/08:30am 17.6 - - - - S 15 26 8 14 1021.7 1021.7 -
22/08:00am 17.6 - - - - S 15 28 8 15 1021.4 1021.4 -
22/07:30am 17.4 - - - - S 11 26 6 14 1021.2 1021.2 -
22/07:00am 17.4 - - - - S 11 24 6 13 1020.7 1020.7 -
22/06:30am 17.1 - - - - S 13 26 7 14 1020.3 1020.3 -
22/06:00am 17.0 - - - - S 13 22 7 12 1019.8 1019.8 -
22/05:30am 16.6 - - - - SSW 13 19 7 10 1019.5 1019.5 -
22/05:00am 17.1 - - - - SSW 9 13 5 7 1018.9 1018.9 -
22/04:30am 18.2 - - - - S 20 35 11 19 1018.3 1018.3 -
22/04:00am 18.3 - - - - S 19 37 10 20 1018.2 1018.2 -
22/03:30am 17.8 - - - - S 19 39 10 21 1018.2 1018.2 -
22/03:00am 17.5 - - - - SSW 11 26 6 14 1018.7 1018.7 -
22/02:30am 17.3 - - - - SSW 13 30 7 16 1019.1 1019.1 -
22/02:00am 17.0 - - - - S 19 37 10 20 1019.6 1019.6 -
22/01:30am 16.6 - - - - S 15 35 8 19 1020.1 1020.1 -
22/01:00am 16.6 - - - - S 17 33 9 18 1020.3 1020.3 -
22/12:30am 16.3 - - - - S 17 33 9 18 1020.5 1020.5 -
22/12:00am 16.2 - - - - S 15 30 8 16 1020.9 1020.9 -
 
Date/Time
EST
Temp
°C
App
Temp
°C
Dew
Point
Rel
Hum
%
Delta-T
°C
Wind Press
QNH
hPa
Press
MSL
hPa
Rain
since 9 am
mm
Dir
 
Spd
km/h
Gust
km/h
Spd
kts
Gust
kts
21/11:30pm 16.0 - - - - SSW 15 24 8 13 1020.9 1020.9 -
21/11:00pm 16.1 - - - - S 15 30 8 16 1021.0 1021.0 -
21/10:30pm 16.4 - - - - S 17 30 9 16 1021.1 1021.1 -
21/10:00pm 16.6 - - - - S 17 26 9 14 1020.8 1020.8 -
21/09:30pm 16.9 - - - - S 15 30 8 16 1020.8 1020.8 -
21/09:00pm 16.9 - - - - S 15 28 8 15 1020.7 1020.7 -
21/08:30pm 17.2 - - - - S 13 22 7 12 1020.6 1020.6 -
21/08:00pm 16.7 - - - - SSW 11 17 6 9 1020.3 1020.3 -
21/07:30pm 16.2 - - - - SSW 11 17 6 9 1020.0 1020.0 -
21/07:00pm 16.2 - - - - SSW 15 24 8 13 1019.8 1019.8 -
21/06:30pm 16.9 - - - - S 13 28 7 15 1019.5 1019.5 -
21/06:00pm 18.5 - - - - S 15 28 8 15 1018.9 1018.9 -
21/05:30pm 19.2 - - - - S 11 22 6 12 1018.8 1018.8 -
21/05:00pm 18.9 - - - - S 13 24 7 13 1018.6 1018.6 -
21/04:30pm 19.2 - - - - SSW 13 26 7 14 1018.3 1018.3 -
21/04:00pm 19.4 - - - - S 15 26 8 14 1017.9 1017.9 -
21/03:30pm 19.3 - - - - S 13 22 7 12 1017.7 1017.7 -
21/03:00pm 19.0 - - - - S 11 22 6 12 1017.9 1017.9 -
21/02:30pm 19.3 - - - - S 6 11 3 6 1017.9 1017.9 -
21/02:00pm 18.9 - - - - S 6 13 3 7 1018.2 1018.2 -
21/01:30pm 18.1 - - - - S 9 15 5 8 1018.6 1018.6 -
21/01:00pm 18.1 - - - - S 9 17 5 9 1018.9 1018.9 -
21/12:30pm 17.6 - - - - SSW 9 13 5 7 1019.4 1019.4 -
21/12:00pm 17.0 - - - - S 11 22 6 12 1020.0 1020.0 -
21/11:30am 17.9 - - - - S 9 17 5 9 1020.3 1020.3 -
21/11:00am 18.1 - - - - SSW 9 19 5 10 1020.4 1020.4 -
21/10:30am 17.4 - - - - SSW 9 13 5 7 1020.7 1020.7 -
21/10:00am 17.5 - - - - S 9 22 5 12 1021.1 1021.1 -
21/09:30am 18.1 - - - - S 6 15 3 8 1021.0 1021.0 -
21/09:00am 17.7 - - - - SSW 9 22 5 12 1020.9 1020.9 -
21/08:30am 17.6 - - - - S 11 20 6 11 1020.7 1020.7 -
21/08:00am 17.0 - - - - S 7 22 4 12 1020.4 1020.4 -
21/07:30am 17.0 - - - - S 6 17 3 9 1020.0 1020.0 -
21/07:00am 15.8 - - - - S 4 9 2 5 1019.6 1019.6 -
21/06:30am 15.6 - - - - SSW 7 11 4 6 1019.3 1019.3 -
21/06:00am 16.2 - - - - SSW 6 9 3 5 1019.2 1019.2 -
21/05:30am 16.3 - - - - SSW 6 7 3 4 1018.8 1018.8 -
21/05:00am 15.9 - - - - SSW 6 7 3 4 1018.7 1018.7 -
21/04:30am 15.8 - - - - SSW 6 9 3 5 1018.3 1018.3 -
21/04:00am 15.5 - - - - SSW 9 15 5 8 1018.4 1018.4 -
21/03:30am 15.6 - - - - SSW 7 11 4 6 1018.5 1018.5 -
21/03:00am 15.7 - - - - SSW 7 11 4 6 1018.6 1018.6 -
21/02:30am 15.9 - - - - SSW 7 13 4 7 1019.0 1019.0 -
21/02:00am 16.6 - - - - S 6 9 3 5 1018.9 1018.9 -
21/01:30am 16.9 - - - - S 7 11 4 6 1019.1 1019.1 -
21/01:00am 16.4 - - - - S 6 9 3 5 1019.4 1019.4 -
21/12:30am 17.4 - - - - S 6 7 3 4 1019.4 1019.4 -
21/12:00am 17.9 - - - - S 6 6 3 3 1019.7 1019.7 -
 
Date/Time
EST
Temp
°C
App
Temp
°C
Dew
Point
Rel
Hum
%
Delta-T
°C
Wind Press
QNH
hPa
Press
MSL
hPa
Rain
since 9 am
mm
Dir
 
Spd
km/h
Gust
km/h
Spd
kts
Gust
kts
20/11:30pm 17.4 - - - - SE 2 4 1 2 1019.8 1019.8 -
20/11:00pm 18.5 - - - - S 4 6 2 3 1020.0 1020.0 -
20/10:30pm 18.1 - - - - S 2 6 1 3 1020.0 1020.0 -
20/10:00pm 18.5 - - - - S 6 9 3 5 1020.2 1020.2 -
20/09:30pm 18.6 - - - - S 6 9 3 5 1020.1 1020.1 -
20/09:00pm 18.6 - - - - S 6 11 3 6 1019.9 1019.9 -
20/08:30pm 18.7 - - - - S 6 13 3 7 1019.9 1019.9 -
20/08:00pm 18.9 - - - - SSW 6 13 3 7 1019.7 1019.7 -
20/07:30pm 18.9 - - - - SW 4 13 2 7 1019.2 1019.2 -
20/07:00pm 19.2 - - - - SSW 4 13 2 7 1019.0 1019.0 -
20/06:30pm 19.2 - - - - SW 4 9 2 5 1018.6 1018.6 -
20/06:00pm 19.3 - - - - E 4 13 2 7 1018.3 1018.3 -
20/05:30pm 19.6 - - - - ENE 4 11 2 6 1017.9 1017.9 -
20/05:00pm 19.5 - - - - ENE 9 17 5 9 1017.8 1017.8 -
20/04:30pm 19.8 - - - - ENE 11 20 6 11 1017.3 1017.3 -
20/04:00pm 20.0 - - - - ENE 11 24 6 13 1016.9 1016.9 -
20/03:30pm 20.0 - - - - E 6 17 3 9 1016.5 1016.5 -
20/03:00pm 20.5 - - - - E 6 17 3 9 1016.6 1016.6 -
20/02:30pm 19.7 - - - - ENE 19 22 10 12 1016.8 1016.8 -
20/02:00pm 20.6 - - - - W 6 13 3 7 1016.7 1016.7 -
20/01:30pm 20.4 - - - - WSW 6 11 3 6 1016.8 1016.8 -
20/01:00pm 20.5 - - - - SSW 4 7 2 4 1017.2 1017.2 -
20/12:30pm 20.3 - - - - S 6 11 3 6 1017.6 1017.6 -
20/12:00pm 19.6 - - - - S 11 19 6 10 1018.1 1018.1 -
20/11:30am 19.8 - - - - SSW 7 17 4 9 1018.3 1018.3 -
20/11:00am 19.1 - - - - S 9 17 5 9 1018.9 1018.9 -
20/10:30am 18.9 - - - - S 9 15 5 8 1019.2 1019.2 -
20/10:00am 18.9 - - - - S 9 13 5 7 1019.6 1019.6 -
20/09:30am 19.0 - - - - S 7 15 4 8 1019.7 1019.7 -
20/09:00am 18.7 - - - - SSW 7 13 4 7 1019.5 1019.5 -
20/08:30am 17.3 - - - - SSW 7 17 4 9 1019.5 1019.5 -
20/08:00am 15.9 - - - - SSW 9 15 5 8 1019.5 1019.5 -
20/07:30am 14.5 - - - - WNW 4 6 2 3 1019.5 1019.5 -
20/07:00am 14.0 - - - - NNW 4 7 2 4 1019.3 1019.3 -
20/06:30am 14.2 - - - - SW 4 9 2 5 1019.0 1019.0 -
20/06:00am 12.8 - - - - WNW 6 7 3 4 1018.9 1018.9 -
20/05:30am 14.8 - - - - SSW 9 13 5 7 1018.5 1018.5 -
20/05:00am 15.6 - - - - S 7 13 4 7 1018.0 1018.0 -
20/04:30am 15.6 - - - - S 7 9 4 5 1017.8 1017.8 -
20/04:00am 15.7 - - - - S 9 13 5 7 1017.5 1017.5 -
20/03:30am 15.1 - - - - S 9 13 5 7 1017.2 1017.2 -
20/03:00am 15.5 - - - - SSW 11 15 6 8 1017.2 1017.2 -
20/02:30am 15.4 - - - - S 9 15 5 8 1017.3 1017.3 -
20/02:00am 16.0 - - - - S 9 15 5 8 1017.3 1017.3 -
20/01:30am 16.1 - - - - S 7 11 4 6 1017.5 1017.5 -
20/01:00am 15.9 - - - - S 7 13 4 7 1017.6 1017.6 -
20/12:30am 15.4 - - - - S 9 13 5 7 1017.7 1017.7 -
20/12:00am 15.7 - - - - S 9 13 5 7 1017.7 1017.7 -

Other Formats:

Comma delimited format used in spreadsheet applications
http://www.bom.gov.au/fwo/IDQ60801/IDQ60801.95298.axf

JavaScript Object Notation format (JSON) in row-major order
http://www.bom.gov.au/fwo/IDQ60801/IDQ60801.95298.json